Time;durP1;ratioP1;P1;durP2;ratioP2;P2;SDS_P1;SDS_P2;PMS_P1;PMS_P2;Temp;Humidity;BMP_temperature;BMP_pressure;BME280_temperature;BME280_humidity;BME280_pressure;Samples;Min_cycle;Max_cycle;Signal;HPM_P1;HPM_P2
2022/11/26 00:00:18;;;;;;;14.70;5.03;;;;;;;2.35;100.00;100893.23;1722379;82;21144;-81
2022/11/26 00:03:03;;;;;;;10.63;5.17;;;;;;;2.35;100.00;100893.76;1776718;79;20980;-81
2022/11/26 00:05:50;;;;;;;8.85;4.00;;;;;;;2.36;100.00;100898.09;1780277;79;21054;-81
2022/11/26 00:08:35;;;;;;;13.28;4.75;;;;;;;2.38;100.00;100906.81;1791276;79;21067;-81
2022/11/26 00:11:20;;;;;;;12.63;4.45;;;;;;;2.39;100.00;100906.28;1782005;78;21043;-82
2022/11/26 00:14:14;;;;;;;15.85;5.08;;;;;;;2.41;100.00;100905.55;1776346;79;21014;-81
2022/11/26 00:16:59;;;;;;;10.65;4.03;;;;;;;2.40;100.00;100910.12;1780099;79;21427;-81
2022/11/26 00:19:44;;;;;;;11.85;4.75;;;;;;;2.39;100.00;100898.19;1794795;78;21011;-81
2022/11/26 00:22:29;;;;;;;10.18;4.58;;;;;;;2.40;100.00;100904.73;1755700;80;21001;-81
2022/11/26 00:25:17;;;;;;;12.50;5.35;;;;;;;2.42;100.00;100905.84;1705748;82;21048;-81
2022/11/26 00:28:02;;;;;;;11.55;4.78;;;;;;;2.41;100.00;100907.72;1711753;82;21014;-81
2022/11/26 00:30:47;;;;;;;15.43;5.12;;;;;;;2.40;100.00;100908.78;1756328;80;21466;-81
2022/11/26 00:33:32;;;;;;;13.65;5.20;;;;;;;2.41;100.00;100906.38;1780445;78;20999;-81
2022/11/26 00:36:29;;;;;;;11.60;4.28;;;;;;;2.45;100.00;100905.41;1774118;80;21047;-81
2022/11/26 00:39:20;;;;;;;16.42;6.33;;;;;;;2.46;100.00;100915.17;1774752;78;21000;-81
2022/11/26 00:42:05;;;;;;;13.88;6.17;;;;;;;2.50;100.00;100917.23;1710920;82;21015;-81
2022/11/26 00:44:50;;;;;;;9.75;4.42;;;;;;;2.51;100.00;100910.78;1718435;82;21569;-81
2022/11/26 00:47:34;;;;;;;11.80;5.12;;;;;;;2.52;100.00;100919.70;1807603;78;20976;-81
2022/11/26 00:50:22;;;;;;;16.42;5.67;;;;;;;2.51;100.00;100915.36;1734905;80;21143;-81
2022/11/26 00:53:07;;;;;;;14.13;6.05;;;;;;;2.52;100.00;100924.59;1776899;79;21046;-81
2022/11/26 00:55:51;;;;;;;10.63;4.70;;;;;;;2.52;100.00;100921.05;1711012;82;21014;-81
2022/11/26 00:58:36;;;;;;;12.47;4.45;;;;;;;2.53;100.00;100922.19;1700581;81;21029;-81
2022/11/26 01:01:24;;;;;;;12.40;4.90;;;;;;;2.54;100.00;100927.06;1713924;81;21804;-81
2022/11/26 01:04:09;;;;;;;16.02;4.87;;;;;;;2.55;100.00;100924.69;1791485;79;21059;-81
2022/11/26 01:06:53;;;;;;;15.25;6.47;;;;;;;2.55;100.00;100929.55;1715241;82;21082;-81
2022/11/26 01:09:38;;;;;;;14.28;4.87;;;;;;;2.55;100.00;100926.86;1721714;82;20984;-81
2022/11/26 01:12:22;;;;;;;13.45;4.62;;;;;;;2.55;100.00;100925.51;1719108;81;21504;-81
2022/11/26 01:15:08;;;;;;;15.25;5.47;;;;;;;2.58;100.00;100924.25;1770751;78;21015;-81
2022/11/26 01:17:54;;;;;;;11.80;4.45;;;;;;;2.58;100.00;100931.00;1784040;79;21071;-81
2022/11/26 01:20:38;;;;;;;18.32;5.47;;;;;;;2.55;100.00;100924.16;1772814;78;21425;-80
2022/11/26 01:23:23;;;;;;;13.53;5.28;;;;;;;2.57;100.00;100932.88;1760750;79;21062;-81
2022/11/26 01:26:23;;;;;;;13.22;5.40;;;;;;;2.57;100.00;100931.52;1699333;83;21004;-81
2022/11/26 01:29:18;;;;;;;10.95;5.60;;;;;;;2.57;100.00;100930.17;1676543;83;21036;-81
2022/11/26 01:32:03;;;;;;;15.80;4.95;;;;;;;2.49;100.00;100931.74;1739324;80;20978;-81
2022/11/26 01:34:48;;;;;;;15.83;5.28;;;;;;;2.46;100.00;100926.78;1754825;80;20989;-81
2022/11/26 01:37:32;;;;;;;13.95;5.50;;;;;;;2.46;100.00;100932.18;1738874;81;21016;-81
2022/11/26 01:40:37;;;;;;;15.88;6.15;;;;;;;2.46;100.00;100934.88;1722776;79;21242;-81
2022/11/26 01:43:27;;;;;;;14.38;5.40;;;;;;;2.43;100.00;100941.23;1743981;81;21005;-81
2022/11/26 01:46:15;;;;;;;14.90;5.35;;;;;;;2.42;100.00;100940.38;1743896;81;20992;-81
2022/11/26 01:49:25;;;;;;;14.87;5.80;;;;;;;2.41;100.00;100938.73;1752969;79;21017;-81
2022/11/26 01:52:19;;;;;;;11.08;4.62;;;;;;;2.40;100.00;100935.75;1715033;83;20997;-81
2022/11/26 01:55:04;;;;;;;12.65;6.85;;;;;;;2.42;100.00;100938.21;1735917;80;21053;-81
2022/11/26 01:57:49;;;;;;;15.18;5.83;;;;;;;2.43;100.00;100942.59;1680443;83;20996;-81
2022/11/26 02:00:33;;;;;;;16.15;6.15;;;;;;;2.45;100.00;100948.56;1688924;83;21049;-81
2022/11/26 02:03:18;;;;;;;16.65;6.75;;;;;;;2.44;100.00;100944.23;1701599;81;20997;-81
2022/11/26 02:06:09;;;;;;;17.55;5.75;;;;;;;2.44;100.00;100949.09;1742940;80;20994;-81
2022/11/26 02:08:54;;;;;;;13.28;5.35;;;;;;;2.42;100.00;100948.48;1680217;83;21100;-81
2022/11/26 02:11:39;;;;;;;11.20;5.20;;;;;;;2.42;100.00;100946.30;1725766;79;21027;-81
2022/11/26 02:14:28;;;;;;;9.68;4.22;;;;;;;2.45;100.00;100945.87;1728164;81;21064;-81
2022/11/26 02:17:24;;;;;;;10.65;4.22;;;;;;;2.48;100.00;100946.81;1739797;80;21006;-81
2022/11/26 02:20:26;;;;;;;12.95;5.25;;;;;;;2.50;100.00;100955.53;1746150;79;21008;-81
2022/11/26 02:23:48;;;;;;;9.63;4.40;;;;;;;2.49;100.00;100957.38;1721346;81;21357;-81
2022/11/26 02:26:56;;;;;;;13.88;4.60;;;;;;;2.50;100.00;100948.78;1739901;81;21059;-81
2022/11/26 02:29:52;;;;;;;11.08;5.00;;;;;;;2.48;100.00;100951.69;1724081;81;21031;-81
2022/11/26 02:33:06;;;;;;;13.10;5.22;;;;;;;2.49;100.00;100955.20;1741782;81;21577;-81
2022/11/26 02:36:08;;;;;;;11.97;5.40;;;;;;;2.51;100.00;100959.87;1741998;81;21457;-81
2022/11/26 02:38:53;;;;;;;11.90;5.22;;;;;;;2.58;100.00;100966.89;1734724;81;21052;-81
2022/11/26 02:41:46;;;;;;;11.35;5.08;;;;;;;2.58;100.00;100964.20;1743464;81;21477;-80
2022/11/26 02:44:39;;;;;;;14.75;6.20;;;;;;;2.58;100.00;100962.84;1750009;81;21581;-81
2022/11/26 02:47:24;;;;;;;22.67;9.45;;;;;;;2.58;100.00;100968.24;1730726;81;21053;-81
2022/11/26 02:50:14;;;;;;;23.15;11.60;;;;;;;2.57;100.00;100972.00;1747928;81;20984;-81
2022/11/26 02:52:58;;;;;;;17.85;7.95;;;;;;;2.53;100.00;100968.05;1712711;81;21393;-81
2022/11/26 02:55:47;;;;;;;14.87;6.25;;;;;;;2.53;100.00;100971.28;1740156;81;21002;-81
2022/11/26 02:58:32;;;;;;;15.83;6.92;;;;;;;2.53;100.00;100973.98;1743047;81;21083;-81
2022/11/26 03:01:38;;;;;;;12.70;5.58;;;;;;;2.52;100.00;100974.51;1744274;80;21437;-80
2022/11/26 03:04:26;;;;;;;14.05;5.60;;;;;;;2.52;100.00;100970.45;1729342;81;21004;-80
2022/11/26 03:07:13;;;;;;;9.83;4.30;;;;;;;2.56;100.00;100968.97;1738739;81;21587;-81
2022/11/26 03:10:00;;;;;;;11.43;5.83;;;;;;;2.58;100.00;100972.29;1692541;83;21022;-81
2022/11/26 03:12:45;;;;;;;13.15;4.58;;;;;;;2.58;100.00;100977.69;1734856;81;21022;-80
2022/11/26 03:15:29;;;;;;;13.80;6.20;;;;;;;2.59;100.00;100975.28;1743230;79;21021;-81
2022/11/26 03:18:14;;;;;;;12.65;4.80;;;;;;;2.63;100.00;100979.75;1726995;81;21025;-81
2022/11/26 03:20:59;;;;;;;13.72;5.70;;;;;;;2.62;100.00;100983.50;1743023;81;20997;-81
2022/11/26 03:23:43;;;;;;;12.88;5.97;;;;;;;2.62;100.00;100979.45;1732479;81;21073;-81
2022/11/26 03:26:28;;;;;;;10.38;4.72;;;;;;;2.64;100.00;100985.97;1692406;83;21069;-81
2022/11/26 03:29:12;;;;;;;10.63;5.10;;;;;;;2.64;100.00;100985.97;1769263;78;21441;-81
2022/11/26 03:31:58;;;;;;;11.43;4.58;;;;;;;2.64;100.00;100987.31;1777640;78;21024;-81
2022/11/26 03:34:42;;;;;;;13.68;5.65;;;;;;;2.65;100.00;100987.64;1780166;79;21066;-81
2022/11/26 03:37:26;;;;;;;13.78;5.85;;;;;;;2.68;100.00;100987.20;1780504;78;21000;-81
2022/11/26 03:40:12;;;;;;;11.78;5.35;;;;;;;2.67;100.00;100985.53;1774992;79;21047;-81
2022/11/26 03:42:56;;;;;;;13.03;5.62;;;;;;;2.67;100.00;100985.53;1699737;82;21027;-81
2022/11/26 03:45:41;;;;;;;14.95;6.62;;;;;;;2.70;100.00;100990.52;1776693;79;21042;-81
2022/11/26 03:48:25;;;;;;;15.45;7.25;;;;;;;2.71;100.00;100994.87;1779228;79;21456;-81
2022/11/26 03:51:12;;;;;;;25.65;9.38;;;;;;;2.71;100.00;101001.61;1780225;79;21022;-81
2022/11/26 03:53:56;;;;;;;15.13;7.03;;;;;;;2.69;100.00;101005.04;1779983;80;21007;-81
2022/11/26 03:56:41;;;;;;;15.65;6.22;;;;;;;2.70;100.00;101002.67;1780110;79;21014;-81
2022/11/26 03:59:26;;;;;;;13.90;5.28;;;;;;;2.71;100.00;101011.05;1762563;79;20991;-81
2022/11/26 04:02:11;;;;;;;14.65;5.22;;;;;;;2.72;100.00;101008.66;1710271;82;20978;-81
2022/11/26 04:04:55;;;;;;;14.45;5.30;;;;;;;2.67;100.00;101016.56;1715332;81;20970;-81
2022/11/26 04:07:40;;;;;;;12.33;4.95;;;;;;;2.64;100.00;101015.65;1717194;82;21026;-81
2022/11/26 04:10:25;;;;;;;13.72;5.25;;;;;;;2.66;100.00;101018.97;1714672;82;20993;-81
2022/11/26 04:13:10;;;;;;;13.58;5.08;;;;;;;2.67;100.00;101028.70;1716774;82;21401;-81
2022/11/26 04:15:55;;;;;;;13.68;5.53;;;;;;;2.68;100.00;101024.98;1764570;79;21462;-81
2022/11/26 04:18:39;;;;;;;11.18;4.92;;;;;;;2.69;100.00;101027.98;1780897;78;21015;-81
2022/11/26 04:21:23;;;;;;;10.30;4.42;;;;;;;2.72;100.00;101029.75;1721083;82;20989;-81
2022/11/26 04:24:08;;;;;;;13.72;4.55;;;;;;;2.72;100.00;101020.80;1706057;82;21023;-80
2022/11/26 04:26:52;;;;;;;15.45;5.53;;;;;;;2.71;100.00;101035.34;1779051;79;21492;-81
2022/11/26 04:29:38;;;;;;;10.70;4.53;;;;;;;2.74;100.00;101034.91;1753947;80;21045;-81
2022/11/26 04:32:23;;;;;;;12.10;5.62;;;;;;;2.74;100.00;101040.31;1689512;83;21009;-81
2022/11/26 04:35:08;;;;;;;10.65;4.53;;;;;;;2.76;100.00;101043.63;1692773;83;21025;-81
2022/11/26 04:37:53;;;;;;;13.25;5.75;;;;;;;2.83;100.00;101040.91;1740918;81;21017;-81
2022/11/26 04:40:38;;;;;;;14.05;5.97;;;;;;;2.84;100.00;101034.46;1738519;80;21091;-81
2022/11/26 04:43:23;;;;;;;16.70;6.67;;;;;;;2.85;100.00;101039.66;1739658;81;21000;-81
2022/11/26 04:46:08;;;;;;;10.53;4.47;;;;;;;2.86;100.00;101052.09;1743156;81;21010;-81
2022/11/26 04:48:53;;;;;;;15.58;6.03;;;;;;;2.87;100.00;101052.42;1742343;81;20997;-81
2022/11/26 04:51:37;;;;;;;17.75;8.28;;;;;;;2.88;100.00;101055.42;1748288;81;21252;-81
2022/11/26 04:54:22;;;;;;;14.38;6.45;;;;;;;2.87;100.00;101061.88;1741814;81;21044;-81
2022/11/26 04:57:06;;;;;;;16.90;7.80;;;;;;;2.87;100.00;101060.52;1743040;81;21420;-81
2022/11/26 04:59:51;;;;;;;14.15;6.47;;;;;;;2.89;100.00;101061.11;1734512;81;21028;-80
2022/11/26 05:02:36;;;;;;;11.38;5.15;;;;;;;2.87;100.00;101056.48;1694322;82;20994;-81
2022/11/26 05:05:21;;;;;;;13.55;6.22;;;;;;;2.86;100.00;101063.42;1694311;82;21359;-81
2022/11/26 05:08:06;;;;;;;13.88;5.60;;;;;;;2.85;100.00;101069.34;1739592;81;20991;-81
2022/11/26 05:10:53;;;;;;;13.95;5.12;;;;;;;2.85;100.00;101071.23;1744439;80;21014;-81
2022/11/26 05:13:39;;;;;;;13.95;5.47;;;;;;;2.84;100.00;101073.60;1738445;81;21025;-81
2022/11/26 05:16:23;;;;;;;13.20;5.65;;;;;;;2.84;100.00;101076.30;1736940;81;21038;-81
2022/11/26 05:19:08;;;;;;;14.68;5.95;;;;;;;2.83;100.00;101072.78;1745499;81;21003;-81
2022/11/26 05:21:52;;;;;;;14.63;6.25;;;;;;;2.83;100.00;101076.83;1736996;80;22014;-81
2022/11/26 05:24:37;;;;;;;14.83;5.85;;;;;;;2.80;100.00;101078.61;1743689;81;21451;-81
2022/11/26 05:27:22;;;;;;;16.30;6.20;;;;;;;2.79;100.00;101082.33;1740788;81;21053;-81
2022/11/26 05:30:09;;;;;;;13.18;5.83;;;;;;;2.78;100.00;101082.86;1770871;78;21015;-82
2022/11/26 05:32:53;;;;;;;12.68;6.17;;;;;;;2.76;100.00;101094.91;1777713;79;21078;-82
2022/11/26 05:35:38;;;;;;;12.98;5.47;;;;;;;2.76;100.00;101098.95;1775801;79;21017;-82
2022/11/26 05:38:22;;;;;;;12.93;5.95;;;;;;;2.76;100.00;101092.21;1695218;82;21054;-82
2022/11/26 05:41:07;;;;;;;10.75;4.92;;;;;;;2.75;100.00;101100.02;1755066;80;21033;-82
2022/11/26 05:43:52;;;;;;;12.00;4.50;;;;;;;2.75;100.00;101106.76;1790606;79;20992;-81
2022/11/26 05:46:39;;;;;;;14.47;6.08;;;;;;;2.77;100.00;101105.50;1751519;79;21066;-82
2022/11/26 05:49:23;;;;;;;20.95;6.28;;;;;;;2.76;100.00;101109.75;1746748;82;21023;-82
2022/11/26 05:52:10;;;;;;;16.80;8.33;;;;;;;2.75;100.00;101112.16;1748118;81;21089;-82
2022/11/26 05:54:54;;;;;;;23.35;10.00;;;;;;;2.76;100.00;101115.15;1748076;82;21509;-82
2022/11/26 05:57:39;;;;;;;13.30;5.80;;;;;;;2.77;100.00;101115.48;1745883;80;21015;-82
2022/11/26 06:00:24;;;;;;;11.70;5.08;;;;;;;2.76;100.00;101113.80;1750820;82;21656;-82
2022/11/26 06:03:09;;;;;;;15.78;5.70;;;;;;;2.76;100.00;101127.30;1750547;82;21046;-82
2022/11/26 06:05:54;;;;;;;16.70;6.25;;;;;;;2.77;100.00;101127.63;1750502;82;20987;-82
2022/11/26 06:08:40;;;;;;;13.10;5.65;;;;;;;2.76;100.00;101125.42;1751116;80;21010;-82
2022/11/26 06:11:25;;;;;;;15.85;6.30;;;;;;;2.75;100.00;101124.30;1747315;82;21066;-82
2022/11/26 06:14:11;;;;;;;12.93;4.85;;;;;;;2.76;100.00;101129.99;1750800;82;21163;-82
2022/11/26 06:16:56;;;;;;;14.78;5.85;;;;;;;2.77;100.00;101131.67;1750507;81;20947;-82
2022/11/26 06:19:40;;;;;;;15.15;5.50;;;;;;;2.79;100.00;101135.81;1750997;82;20986;-82
2022/11/26 06:22:25;;;;;;;14.38;6.95;;;;;;;2.79;100.00;101137.17;1750511;82;21006;-82
2022/11/26 06:25:12;;;;;;;15.18;6.62;;;;;;;2.79;100.00;101141.22;1750760;82;21034;-82
2022/11/26 06:27:59;;;;;;;12.60;6.03;;;;;;;2.82;100.00;101152.11;1750799;80;21034;-82
2022/11/26 06:30:44;;;;;;;13.25;5.85;;;;;;;2.82;100.00;101146.71;1718089;82;20961;-82
2022/11/26 06:33:29;;;;;;;14.13;5.28;;;;;;;2.80;100.00;101147.44;1650381;85;21066;-82
2022/11/26 06:36:14;;;;;;;16.57;5.20;;;;;;;2.82;100.00;101153.46;1715075;83;21045;-82
2022/11/26 06:39:00;;;;;;;14.03;5.03;;;;;;;2.84;100.00;101153.23;1650020;84;21050;-82
2022/11/26 06:41:45;;;;;;;11.40;4.72;;;;;;;2.86;100.00;101151.98;1715450;82;21040;-82
2022/11/26 06:44:30;;;;;;;12.40;5.87;;;;;;;2.86;100.00;101147.92;1649262;86;21046;-82
2022/11/26 06:47:15;;;;;;;12.05;5.12;;;;;;;2.88;100.00;101160.70;1714871;83;21552;-82
2022/11/26 06:50:00;;;;;;;12.03;4.70;;;;;;;2.91;100.00;101154.87;1648826;84;21014;-82
2022/11/26 06:52:45;;;;;;;14.85;5.70;;;;;;;2.90;100.00;101157.27;1690762;83;21061;-82
2022/11/26 06:55:30;;;;;;;13.80;5.40;;;;;;;2.92;100.00;101151.15;1715485;83;21013;-82
2022/11/26 06:58:15;;;;;;;12.80;5.30;;;;;;;2.93;100.00;101147.39;1715255;82;21057;-82
2022/11/26 07:00:59;;;;;;;18.27;6.28;;;;;;;2.93;100.00;101147.92;1715262;83;21060;-83
2022/11/26 07:03:44;;;;;;;35.88;12.68;;;;;;;2.94;100.00;101156.31;1649283;86;21058;-82
2022/11/26 07:06:31;;;;;;;15.53;6.85;;;;;;;2.99;100.00;101153.81;1713843;83;21049;-82
2022/11/26 07:09:16;;;;;;;11.85;4.87;;;;;;;2.98;100.00;101153.52;1715257;82;21041;-82
2022/11/26 07:12:01;;;;;;;10.95;4.62;;;;;;;2.98;100.00;101162.97;1714960;81;21029;-82
2022/11/26 07:14:46;;;;;;;15.80;5.15;;;;;;;3.01;100.00;101163.36;1715546;83;20923;-82
2022/11/26 07:17:31;;;;;;;10.82;4.60;;;;;;;3.04;100.00;101163.98;1649109;82;21049;-82
2022/11/26 07:20:16;;;;;;;12.78;4.72;;;;;;;3.03;100.00;101171.78;1715228;83;21021;-82
2022/11/26 07:23:01;;;;;;;12.88;5.12;;;;;;;3.03;100.00;101179.36;1647081;86;21024;-82
2022/11/26 07:25:46;;;;;;;11.78;5.20;;;;;;;3.04;100.00;101188.28;1715016;83;21400;-82
2022/11/26 07:28:32;;;;;;;11.43;4.95;;;;;;;3.03;100.00;101189.33;1715202;80;20986;-82
2022/11/26 07:31:19;;;;;;;11.22;5.60;;;;;;;3.01;100.00;101191.70;1649056;84;21492;-82
2022/11/26 07:34:04;;;;;;;12.50;4.75;;;;;;;3.05;100.00;101195.36;1715159;83;21056;-83
2022/11/26 07:36:49;;;;;;;11.35;4.55;;;;;;;3.05;100.00;101192.66;1715597;83;21339;-83
2022/11/26 07:39:34;;;;;;;14.38;5.47;;;;;;;3.08;100.00;101190.88;1715294;82;21881;-83
2022/11/26 07:42:19;;;;;;;12.28;5.75;;;;;;;3.12;100.00;101191.59;1649142;85;21018;-81
2022/11/26 07:45:05;;;;;;;10.43;5.05;;;;;;;3.14;100.00;101192.72;1715068;83;21081;-81
2022/11/26 07:47:49;;;;;;;12.05;4.60;;;;;;;3.14;100.00;101195.41;1715518;82;21487;-81
2022/11/26 07:50:34;;;;;;;15.32;6.45;;;;;;;3.13;100.00;101197.82;1649076;86;21057;-81
2022/11/26 07:53:19;;;;;;;13.03;5.47;;;;;;;3.17;100.00;101207.17;1714802;82;20990;-81
2022/11/26 07:56:05;;;;;;;14.53;6.05;;;;;;;3.18;100.00;101212.87;1648820;84;21634;-81
2022/11/26 07:58:50;;;;;;;13.25;5.45;;;;;;;3.15;100.00;101218.17;1716325;80;21021;-82
2022/11/26 08:01:35;;;;;;;18.02;6.62;;;;;;;3.14;100.00;101214.32;1650096;85;21097;-82
2022/11/26 08:04:20;;;;;;;14.03;6.12;;;;;;;3.17;100.00;101211.22;1690575;83;21361;-81
2022/11/26 08:07:05;;;;;;;10.70;4.58;;;;;;;3.15;100.00;101214.65;1715366;82;21013;-81
2022/11/26 08:09:50;;;;;;;9.95;4.30;;;;;;;3.15;100.00;101213.30;1648740;86;21082;-81
2022/11/26 08:12:37;;;;;;;10.00;5.22;;;;;;;3.16;100.00;101218.99;1715196;83;20994;-81
2022/11/26 08:15:21;;;;;;;11.10;5.42;;;;;;;3.17;100.00;101220.67;1715493;82;21092;-81
2022/11/26 08:18:06;;;;;;;11.45;5.78;;;;;;;3.16;100.00;101225.75;1648850;86;21408;-81
2022/11/26 08:20:55;;;;;;;16.30;6.05;;;;;;;3.14;100.00;101224.63;1714846;83;21505;-81
2022/11/26 08:23:39;;;;;;;10.15;4.15;;;;;;;3.16;100.00;101223.87;1662261;83;21041;-81
2022/11/26 08:26:24;;;;;;;7.17;3.33;;;;;;;3.14;100.00;101226.47;1715182;83;21046;-81
2022/11/26 08:29:09;;;;;;;12.63;5.90;;;;;;;3.13;100.00;101228.88;1649250;85;21046;-81
2022/11/26 08:31:53;;;;;;;10.68;4.97;;;;;;;3.12;100.00;101235.33;1660156;85;21019;-81
2022/11/26 08:34:38;;;;;;;9.73;4.20;;;;;;;3.12;100.00;101232.63;1713446;83;21014;-81
2022/11/26 08:37:22;;;;;;;10.68;5.10;;;;;;;3.12;100.00;101234.80;1711872;83;21638;-82
2022/11/26 08:40:08;;;;;;;14.40;5.65;;;;;;;3.15;100.00;101231.67;1713818;83;21057;-82
2022/11/26 08:42:53;;;;;;;12.00;5.12;;;;;;;3.19;100.00;101230.22;1715030;82;21005;-82
2022/11/26 08:45:38;;;;;;;11.48;4.75;;;;;;;3.21;100.00;101228.64;1714519;83;21501;-82
2022/11/26 08:48:23;;;;;;;12.47;6.12;;;;;;;3.22;100.00;101233.02;1713379;83;21453;-82
2022/11/26 08:51:10;;;;;;;15.32;8.08;;;;;;;3.26;100.00;101237.47;1713237;83;21073;-82
2022/11/26 08:53:55;;;;;;;12.43;6.22;;;;;;;3.24;100.00;101235.00;1714033;82;21006;-82
2022/11/26 08:56:40;;;;;;;13.28;5.25;;;;;;;3.22;100.00;101227.62;1713452;83;21028;-82
2022/11/26 08:59:24;;;;;;;11.20;5.03;;;;;;;3.27;100.00;101225.64;1714194;82;20999;-82
2022/11/26 09:02:10;;;;;;;14.53;6.12;;;;;;;3.31;100.00;101224.15;1714104;83;20999;-82
2022/11/26 09:04:55;;;;;;;11.95;4.85;;;;;;;3.31;100.00;101231.73;1713588;82;21046;-82
2022/11/26 09:07:40;;;;;;;12.90;5.40;;;;;;;3.32;100.00;101235.28;1713057;83;21045;-82
2022/11/26 09:10:25;;;;;;;11.57;4.75;;;;;;;3.30;100.00;101234.13;1714363;83;21512;-82
2022/11/26 09:13:10;;;;;;;9.98;4.47;;;;;;;3.29;100.00;101234.33;1714417;83;21473;-82
2022/11/26 09:15:55;;;;;;;14.35;5.87;;;;;;;3.29;100.00;101235.69;1713458;83;21981;-82
2022/11/26 09:18:39;;;;;;;10.43;4.00;;;;;;;3.29;100.00;101237.03;1712890;83;21056;-83
2022/11/26 09:21:24;;;;;;;9.90;4.90;;;;;;;3.28;100.00;101241.61;1712769;83;21497;-82
2022/11/26 09:24:09;;;;;;;8.88;4.50;;;;;;;3.29;100.00;101240.59;1713194;82;21591;-82
2022/11/26 09:26:54;;;;;;;9.80;3.67;;;;;;;3.30;100.00;101243.59;1714804;83;21002;-82
2022/11/26 09:29:39;;;;;;;11.97;4.45;;;;;;;3.30;100.00;101246.29;1716068;81;21014;-83
2022/11/26 09:32:24;;;;;;;7.85;3.75;;;;;;;3.30;100.00;101260.33;1750538;82;21006;-82
2022/11/26 09:35:09;;;;;;;9.78;4.45;;;;;;;3.29;100.00;101251.39;1750448;82;21019;-82
2022/11/26 09:37:56;;;;;;;11.80;4.40;;;;;;;3.28;100.00;101257.82;1750459;81;21082;-82
2022/11/26 09:40:50;;;;;;;10.58;4.72;;;;;;;3.28;100.00;101255.13;1750655;82;21014;-82
2022/11/26 09:43:52;;;;;;;8.43;3.75;;;;;;;3.30;100.00;101251.69;1751440;80;21668;-82
2022/11/26 09:47:16;;;;;;;9.58;4.10;;;;;;;3.33;100.00;101252.61;1750478;81;21010;-82
2022/11/26 09:50:21;;;;;;;9.58;3.60;;;;;;;3.34;100.00;101256.99;1751300;82;20979;-82
2022/11/26 09:53:29;;;;;;;7.53;3.92;;;;;;;3.37;100.00;101254.39;1750508;81;21592;-82
2022/11/26 09:56:22;;;;;;;12.18;3.85;;;;;;;3.38;100.00;101254.68;1749281;81;20907;-82
2022/11/26 09:59:11;;;;;;;6.45;3.17;;;;;;;3.38;100.00;101269.02;1714508;83;20994;-82
2022/11/26 10:01:55;;;;;;;9.28;3.75;;;;;;;3.38;100.00;101269.02;1751115;82;21023;-82
2022/11/26 10:04:40;;;;;;;9.50;3.98;;;;;;;3.39;100.00;101269.87;1750656;80;21054;-82
2022/11/26 10:07:39;;;;;;;9.05;4.08;;;;;;;3.42;100.00;101278.37;1750551;82;21063;-82
2022/11/26 10:10:42;;;;;;;10.80;3.80;;;;;;;3.41;100.00;101275.38;1751908;80;21042;-82
2022/11/26 10:13:42;;;;;;;7.92;3.85;;;;;;;3.43;100.00;101277.31;1754012;81;21054;-82
2022/11/26 10:16:41;;;;;;;8.45;3.50;;;;;;;3.50;100.00;101284.59;1735913;81;21446;-82
2022/11/26 10:19:37;;;;;;;10.93;4.08;;;;;;;3.52;100.00;101281.16;1750527;80;21015;-82
2022/11/26 10:22:26;;;;;;;8.43;3.83;;;;;;;3.55;100.00;101283.43;1751144;82;21034;-82
2022/11/26 10:25:15;;;;;;;10.58;4.65;;;;;;;3.58;100.00;101278.94;1750447;82;21039;-82
2022/11/26 10:28:00;;;;;;;7.70;4.20;;;;;;;3.59;100.00;101277.92;1734534;81;21474;-82
2022/11/26 10:30:45;;;;;;;10.25;4.47;;;;;;;3.57;100.00;101282.70;1750027;82;21018;-82
2022/11/26 10:33:35;;;;;;;7.90;3.80;;;;;;;3.57;100.00;101281.34;1750368;82;21015;-82
2022/11/26 10:36:39;;;;;;;9.40;4.30;;;;;;;3.58;100.00;101278.41;1751424;81;21018;-82
2022/11/26 10:39:24;;;;;;;8.18;3.80;;;;;;;3.61;100.00;101283.91;1750421;82;21039;-82
2022/11/26 10:42:16;;;;;;;9.03;3.27;;;;;;;3.62;100.00;101286.95;1750493;82;21054;-82
2022/11/26 10:45:02;;;;;;;9.90;4.03;;;;;;;3.63;100.00;101288.59;1750827;82;21018;-81
2022/11/26 10:47:47;;;;;;;9.55;3.80;;;;;;;3.63;100.00;101288.06;1712494;82;21027;-81
2022/11/26 10:50:34;;;;;;;10.82;4.50;;;;;;;3.47;100.00;101290.42;1750436;81;21557;-81
2022/11/26 10:53:22;;;;;;;11.97;4.60;;;;;;;3.49;100.00;101285.61;1750824;82;21034;-81
2022/11/26 10:56:07;;;;;;;9.65;4.50;;;;;;;3.49;100.00;101288.31;1733746;81;21148;-81
2022/11/26 10:58:52;;;;;;;6.97;3.70;;;;;;;3.54;100.00;101292.59;1687138;80;21449;-81
2022/11/26 11:01:38;;;;;;;6.37;3.22;;;;;;;3.53;100.00;101294.97;1750485;82;21023;-82
2022/11/26 11:04:33;;;;;;;8.43;3.22;;;;;;;3.54;100.00;101298.81;1750811;80;21211;-82
2022/11/26 11:07:39;;;;;;;11.53;4.30;;;;;;;3.55;100.00;101302.34;1750667;82;21030;-82
2022/11/26 11:10:25;;;;;;;14.60;5.08;;;;;;;3.56;100.00;101305.34;1750443;81;21015;-82
2022/11/26 11:13:11;;;;;;;10.50;5.00;;;;;;;3.59;100.00;101313.88;1750590;82;22030;-81
2022/11/26 11:16:00;;;;;;;11.00;4.72;;;;;;;3.59;100.00;101318.45;1750424;82;21366;-81
2022/11/26 11:18:58;;;;;;;9.33;3.85;;;;;;;3.63;100.00;101316.97;1750926;80;21592;-82
2022/11/26 11:21:43;;;;;;;9.23;4.53;;;;;;;3.60;100.00;101320.11;1733006;81;21505;-82
2022/11/26 11:24:27;;;;;;;9.50;4.03;;;;;;;3.58;100.00;101326.23;1750617;81;21054;-82
2022/11/26 11:27:22;;;;;;;11.40;4.65;;;;;;;3.56;100.00;101329.67;1733345;81;21081;-81
2022/11/26 11:30:12;;;;;;;8.20;3.98;;;;;;;3.52;100.00;101323.88;1732843;82;21486;-81
2022/11/26 11:33:09;;;;;;;10.45;4.45;;;;;;;3.56;100.00;101325.61;1713695;83;21070;-81
2022/11/26 11:36:20;;;;;;;8.58;4.42;;;;;;;3.57;100.00;101321.89;1749769;82;21519;-82
2022/11/26 11:39:05;;;;;;;7.95;3.87;;;;;;;3.55;100.00;101323.97;1750501;81;21456;-81
2022/11/26 11:41:49;;;;;;;7.70;3.70;;;;;;;3.53;100.00;101331.45;1750388;82;21046;-82
2022/11/26 11:44:42;;;;;;;8.90;4.10;;;;;;;3.53;100.00;101332.80;1751440;81;21628;-82
2022/11/26 11:47:43;;;;;;;10.75;4.58;;;;;;;3.48;100.00;101329.38;1748965;81;21021;-82
2022/11/26 11:50:54;;;;;;;8.78;3.83;;;;;;;3.51;100.00;101329.47;1750532;80;21051;-83
2022/11/26 11:53:57;;;;;;;7.78;4.15;;;;;;;3.50;100.00;101325.13;1750552;81;21043;-82
2022/11/26 11:56:46;;;;;;;14.15;5.78;;;;;;;3.49;100.00;101332.90;1750534;81;21066;-83
2022/11/26 12:00:09;;;;;;;9.95;5.22;;;;;;;3.47;100.00;101341.77;1750549;81;21083;-82
2022/11/26 12:03:09;;;;;;;11.05;4.37;;;;;;;3.44;100.00;101335.73;1750839;82;21050;-82
2022/11/26 12:06:18;;;;;;;11.20;4.03;;;;;;;3.35;100.00;101342.39;1750548;80;21494;-82
2022/11/26 12:09:33;;;;;;;7.28;2.83;;;;;;;3.34;100.00;101346.14;1750512;80;21492;-82
2022/11/26 12:12:26;;;;;;;12.35;4.53;;;;;;;3.36;100.00;101346.77;1750609;81;21882;-82
2022/11/26 12:15:22;;;;;;;9.68;4.12;;;;;;;3.34;100.00;101347.98;1752431;80;21054;-82
2022/11/26 12:18:30;;;;;;;9.45;3.58;;;;;;;3.33;100.00;101347.17;1736361;82;21034;-82
2022/11/26 12:21:18;;;;;;;8.65;4.37;;;;;;;3.31;100.00;101346.54;1750539;82;21003;-82
2022/11/26 12:24:14;;;;;;;9.33;4.03;;;;;;;3.27;100.00;101339.91;1750956;80;21054;-82
2022/11/26 12:27:04;;;;;;;9.83;4.05;;;;;;;3.27;100.00;101348.55;1751485;81;21020;-82
2022/11/26 12:29:56;;;;;;;9.68;3.95;;;;;;;3.27;100.00;101349.90;1750774;80;21070;-83
2022/11/26 12:32:58;;;;;;;10.23;4.75;;;;;;;3.27;100.00;101351.25;1717394;82;21018;-82
2022/11/26 12:35:47;;;;;;;9.83;4.17;;;;;;;3.24;100.00;101345.75;1713675;83;21030;-82
2022/11/26 12:38:35;;;;;;;12.88;5.28;;;;;;;3.23;100.00;101350.29;1689942;83;21012;-83
2022/11/26 12:41:24;;;;;;;10.75;4.58;;;;;;;3.20;100.00;101353.42;1649774;86;21033;-83
2022/11/26 12:44:17;;;;;;;11.18;4.72;;;;;;;3.23;100.00;101357.57;1680249;83;21456;-83
2022/11/26 12:47:29;;;;;;;9.80;3.95;;;;;;;3.20;100.00;101353.94;1714454;83;21488;-82
2022/11/26 12:50:35;;;;;;;14.45;5.17;;;;;;;3.16;100.00;101356.21;1648856;84;21512;-83
2022/11/26 12:53:45;;;;;;;11.95;4.83;;;;;;;3.17;100.00;101357.06;1671693;84;21023;-83
2022/11/26 12:56:40;;;;;;;8.73;3.62;;;;;;;3.14;100.00;101357.46;1715762;82;20997;-83